createdAt,value
2019-03-12T00:01:14.242Z,62.50
2019-03-12T00:14:41.037Z,71.20
2019-03-12T00:17:08.789Z,70.60
2019-03-12T00:19:36.051Z,71.50
2019-03-12T00:22:06.174Z,75.60
2019-03-12T00:24:38.175Z,77.30
2019-03-12T00:27:08.661Z,77.50
2019-03-12T00:29:54.828Z,78.00
2019-03-12T00:32:37.232Z,76.40
2019-03-12T00:35:05.711Z,75.80
2019-03-12T00:37:39.079Z,74.30
2019-03-12T00:40:11.393Z,75.20
2019-03-12T00:42:40.652Z,74.00
2019-03-12T00:45:07.313Z,75.80
2019-03-12T00:47:37.540Z,74.90
2019-03-12T00:50:05.830Z,74.00
2019-03-12T00:52:35.769Z,71.50
2019-03-12T00:55:05.913Z,71.70
2019-03-12T00:57:31.812Z,72.30
2019-03-12T01:00:00.970Z,77.10
2019-03-12T01:02:46.786Z,80.70
2019-03-12T01:05:17.717Z,80.00
2019-03-12T01:07:44.870Z,76.20
2019-03-12T01:10:15.135Z,77.60
2019-03-12T01:12:42.277Z,79.80
2019-03-12T01:15:13.238Z,81.90
2019-03-12T01:17:41.191Z,79.80
2019-03-12T01:20:12.074Z,78.30
2019-03-12T01:22:39.118Z,76.90
2019-03-12T01:25:07.666Z,75.50
2019-03-12T01:27:36.393Z,76.60
2019-03-12T01:30:03.184Z,85.30
2019-03-12T01:32:31.456Z,86.30
2019-03-12T01:35:00.606Z,82.40
2019-03-12T01:37:27.695Z,85.40
2019-03-12T01:39:54.860Z,90.70
2019-03-12T01:42:21.640Z,90.30
2019-03-12T01:44:52.497Z,90.20
2019-03-12T01:47:24.077Z,91.00
2019-03-12T01:49:51.303Z,86.40
2019-03-12T01:52:18.331Z,89.30
2019-03-12T01:54:45.369Z,90.00
2019-03-12T01:57:18.500Z,87.80
2019-03-12T01:59:45.760Z,86.70
2019-03-12T02:02:12.940Z,84.90
2019-03-12T02:04:39.949Z,87.20
2019-03-12T02:07:07.901Z,86.30
2019-03-12T02:09:34.584Z,83.80
2019-03-12T02:12:02.129Z,84.50
2019-03-12T02:14:31.009Z,86.20
2019-03-12T02:16:58.706Z,84.10
2019-03-12T02:19:29.050Z,83.70
2019-03-12T02:21:56.335Z,83.40
2019-03-12T02:24:24.541Z,83.20
2019-03-12T02:26:52.395Z,83.40
2019-03-12T02:29:19.352Z,88.10
2019-03-12T02:31:47.686Z,85.50
2019-03-12T02:34:16.979Z,87.60
2019-03-12T02:36:46.345Z,90.20
2019-03-12T02:39:16.136Z,92.60
2019-03-12T02:41:43.489Z,91.60
2019-03-12T02:44:10.415Z,91.60
2019-03-12T02:57:29.341Z,89.10
2019-03-12T02:59:56.412Z,92.70
2019-03-12T03:02:27.952Z,91.80
2019-03-12T03:04:54.209Z,91.80
2019-03-12T03:07:24.822Z,90.10
2019-03-12T03:09:51.829Z,89.30
2019-03-12T03:12:19.008Z,90.90
2019-03-12T03:14:47.855Z,90.20
2019-03-12T03:17:15.072Z,90.00
2019-03-12T03:19:45.876Z,88.30
2019-03-12T03:22:13.707Z,90.00
2019-03-12T03:24:43.711Z,91.60
2019-03-12T03:27:15.058Z,90.60
2019-03-12T03:29:45.612Z,92.70
2019-03-12T03:32:13.419Z,92.00
2019-03-12T03:37:30.512Z,95.10
2019-03-12T03:39:57.017Z,94.70
2019-03-12T03:42:24.621Z,94.20
2019-03-12T03:44:53.309Z,94.50
2019-03-12T03:47:20.803Z,94.70
2019-03-12T03:49:50.483Z,94.70
2019-03-12T03:52:28.470Z,94.90
2019-03-12T03:54:57.601Z,92.90
2019-03-12T03:57:37.674Z,91.80
2019-03-12T04:00:04.636Z,91.40
2019-03-12T04:02:34.218Z,94.00
2019-03-12T04:05:01.560Z,93.70
2019-03-12T04:07:29.299Z,91.70
2019-03-12T04:09:56.618Z,92.20
2019-03-12T04:12:24.383Z,92.20
2019-03-12T04:14:52.303Z,92.80
2019-03-12T04:17:19.807Z,92.10
2019-03-12T04:19:49.722Z,92.90
2019-03-12T04:22:16.889Z,90.70
2019-03-12T04:24:44.239Z,89.30
2019-03-12T04:27:14.566Z,89.50
2019-03-12T04:29:42.952Z,90.60
2019-03-12T04:32:10.136Z,90.20
2019-03-12T04:34:39.340Z,91.60
2019-03-12T04:37:13.982Z,90.50
2019-03-12T04:39:42.353Z,90.50
2019-03-12T04:42:10.837Z,92.20
2019-03-12T13:48:18.038Z,30.20
2019-03-12T13:50:50.991Z,30.00
2019-03-12T14:09:53.453Z,28.40
2019-03-12T14:29:03.356Z,28.90
2019-03-12T14:31:33.051Z,28.90
2019-03-12T15:06:04.419Z,29.00
2019-03-12T15:08:35.439Z,28.20
2019-03-12T15:11:17.234Z,28.60
2019-03-12T15:18:45.921Z,28.60
2019-03-12T15:21:16.321Z,28.80
2019-03-12T15:53:02.117Z,28.70
2019-03-12T15:55:48.721Z,28.30
2019-03-12T15:58:14.936Z,28.30
2019-03-12T16:01:02.581Z,28.20
2019-03-12T16:03:43.350Z,28.70
2019-03-12T16:06:13.035Z,28.70
2019-03-12T16:08:48.875Z,28.90
2019-03-12T16:11:16.870Z,29.20
2019-03-12T16:13:52.808Z,29.30
2019-03-12T16:24:16.473Z,30.00
2019-03-12T16:29:32.834Z,30.10
2019-03-12T16:31:59.619Z,29.70
2019-03-12T16:34:26.486Z,29.40
2019-03-12T16:47:54.570Z,31.70
2019-03-12T16:58:22.061Z,32.00
2019-03-12T17:00:54.931Z,32.90
2019-03-12T17:03:28.398Z,34.70
2019-03-12T17:06:01.451Z,35.10
2019-03-12T17:08:38.257Z,34.60
2019-03-12T17:11:11.359Z,34.10
2019-03-12T17:13:41.064Z,35.40
2019-03-12T17:16:07.972Z,36.60
2019-03-12T17:18:39.236Z,36.70
2019-03-12T17:21:03.595Z,36.50
2019-03-12T17:39:46.171Z,37.20
2019-03-12T17:42:14.228Z,37.10
2019-03-12T17:44:40.967Z,36.60
2019-03-12T18:00:22.315Z,38.20
2019-03-12T18:02:52.391Z,38.30
2019-03-12T18:05:20.225Z,38.60
2019-03-12T18:07:48.887Z,38.50
2019-03-12T18:10:21.720Z,38.60
2019-03-12T18:13:05.891Z,38.90
2019-03-12T18:15:35.599Z,39.10
2019-03-12T18:18:11.505Z,38.50
2019-03-12T18:21:14.983Z,38.20
2019-03-12T18:40:05.738Z,39.50
2019-03-12T18:42:33.719Z,40.80
2019-03-12T18:45:06.355Z,40.80
2019-03-12T18:47:33.364Z,41.10
2019-03-12T18:50:00.993Z,42.20
2019-03-12T18:52:28.136Z,41.40
2019-03-12T18:54:58.141Z,41.50
2019-03-12T19:03:22.440Z,41.40
2019-03-12T19:05:57.089Z,40.90
2019-03-12T19:08:27.663Z,41.50
2019-03-12T19:13:41.936Z,43.40
2019-03-12T19:37:58.719Z,42.80
